sensor_id;sensor_type;location;lat;lon;timestamp;P1;durP1;ratioP1;P2;durP2;ratioP2
71679;SDS011;59512;42.662;23.254;2022-09-17T00:01:57;8.47;;;4.20;;
71679;SDS011;59512;42.662;23.254;2022-09-17T00:04:22;9.70;;;4.30;;
71679;SDS011;59512;42.662;23.254;2022-09-17T00:06:47;9.47;;;4.13;;
71679;SDS011;59512;42.662;23.254;2022-09-17T00:09:13;11.13;;;3.83;;
71679;SDS011;59512;42.662;23.254;2022-09-17T00:11:40;7.85;;;4.22;;
71679;SDS011;59512;42.662;23.254;2022-09-17T00:14:06;8.50;;;3.60;;
71679;SDS011;59512;42.662;23.254;2022-09-17T00:18:58;11.45;;;4.65;;
71679;SDS011;59512;42.662;23.254;2022-09-17T00:21:24;8.27;;;3.78;;
71679;SDS011;59512;42.662;23.254;2022-09-17T00:23:53;9.37;;;3.73;;
71679;SDS011;59512;42.662;23.254;2022-09-17T00:26:19;9.93;;;4.18;;
71679;SDS011;59512;42.662;23.254;2022-09-17T00:28:47;9.53;;;3.83;;
71679;SDS011;59512;42.662;23.254;2022-09-17T00:31:13;7.28;;;3.25;;
71679;SDS011;59512;42.662;23.254;2022-09-17T00:33:38;11.47;;;3.80;;
71679;SDS011;59512;42.662;23.254;2022-09-17T00:36:04;9.10;;;3.27;;
71679;SDS011;59512;42.662;23.254;2022-09-17T00:38:29;7.60;;;3.45;;
71679;SDS011;59512;42.662;23.254;2022-09-17T00:40:54;12.75;;;3.80;;
71679;SDS011;59512;42.662;23.254;2022-09-17T00:45:57;11.43;;;3.30;;
71679;SDS011;59512;42.662;23.254;2022-09-17T00:48:23;8.93;;;3.40;;
71679;SDS011;59512;42.662;23.254;2022-09-17T00:50:48;7.20;;;3.13;;
71679;SDS011;59512;42.662;23.254;2022-09-17T00:53:14;10.80;;;3.70;;
71679;SDS011;59512;42.662;23.254;2022-09-17T00:58:15;9.35;;;3.75;;
71679;SDS011;59512;42.662;23.254;2022-09-17T01:00:42;9.35;;;3.33;;
71679;SDS011;59512;42.662;23.254;2022-09-17T01:03:07;10.00;;;3.53;;
71679;SDS011;59512;42.662;23.254;2022-09-17T01:15:41;8.55;;;3.63;;
71679;SDS011;59512;42.662;23.254;2022-09-17T01:26:02;8.50;;;3.33;;
71679;SDS011;59512;42.662;23.254;2022-09-17T01:28:44;11.63;;;4.13;;
71679;SDS011;59512;42.662;23.254;2022-09-17T01:38:37;10.18;;;3.70;;
71679;SDS011;59512;42.662;23.254;2022-09-17T01:41:05;7.75;;;3.90;;
71679;SDS011;59512;42.662;23.254;2022-09-17T01:44:06;8.47;;;3.57;;
71679;SDS011;59512;42.662;23.254;2022-09-17T01:46:31;9.23;;;4.05;;
71679;SDS011;59512;42.662;23.254;2022-09-17T01:48:59;12.25;;;5.20;;
71679;SDS011;59512;42.662;23.254;2022-09-17T01:51:26;12.65;;;5.15;;
71679;SDS011;59512;42.662;23.254;2022-09-17T01:54:06;11.40;;;4.75;;
71679;SDS011;59512;42.662;23.254;2022-09-17T01:56:36;9.20;;;4.47;;
71679;SDS011;59512;42.662;23.254;2022-09-17T01:59:08;10.80;;;5.00;;
71679;SDS011;59512;42.662;23.254;2022-09-17T02:01:35;14.27;;;5.32;;
71679;SDS011;59512;42.662;23.254;2022-09-17T02:04:06;13.40;;;6.05;;
71679;SDS011;59512;42.662;23.254;2022-09-17T02:06:37;11.27;;;5.80;;
71679;SDS011;59512;42.662;23.254;2022-09-17T02:09:13;14.90;;;5.20;;
71679;SDS011;59512;42.662;23.254;2022-09-17T02:11:40;11.13;;;5.97;;
71679;SDS011;59512;42.662;23.254;2022-09-17T02:14:09;14.13;;;5.53;;
71679;SDS011;59512;42.662;23.254;2022-09-17T02:16:38;10.27;;;5.20;;
71679;SDS011;59512;42.662;23.254;2022-09-17T02:24:05;7.47;;;1.90;;
71679;SDS011;59512;42.662;23.254;2022-09-17T02:26:31;9.27;;;1.93;;
71679;SDS011;59512;42.662;23.254;2022-09-17T02:29:01;9.38;;;1.90;;
71679;SDS011;59512;42.662;23.254;2022-09-17T02:31:28;8.52;;;1.83;;
71679;SDS011;59512;42.662;23.254;2022-09-17T02:33:54;8.97;;;2.00;;
71679;SDS011;59512;42.662;23.254;2022-09-17T02:36:21;8.25;;;2.60;;
71679;SDS011;59512;42.662;23.254;2022-09-17T02:38:53;9.05;;;4.22;;
71679;SDS011;59512;42.662;23.254;2022-09-17T02:41:20;13.43;;;4.80;;
71679;SDS011;59512;42.662;23.254;2022-09-17T02:43:53;9.80;;;5.03;;
71679;SDS011;59512;42.662;23.254;2022-09-17T03:01:26;11.00;;;5.00;;
71679;SDS011;59512;42.662;23.254;2022-09-17T03:03:53;10.10;;;4.90;;
71679;SDS011;59512;42.662;23.254;2022-09-17T03:06:18;10.25;;;5.75;;
71679;SDS011;59512;42.662;23.254;2022-09-17T03:08:44;10.18;;;5.65;;
71679;SDS011;59512;42.662;23.254;2022-09-17T03:11:10;11.50;;;6.20;;
71679;SDS011;59512;42.662;23.254;2022-09-17T03:13:37;10.40;;;5.82;;
71679;SDS011;59512;42.662;23.254;2022-09-17T03:16:02;14.25;;;6.43;;
71679;SDS011;59512;42.662;23.254;2022-09-17T03:18:27;14.47;;;6.80;;
71679;SDS011;59512;42.662;23.254;2022-09-17T03:20:53;13.00;;;7.10;;
71679;SDS011;59512;42.662;23.254;2022-09-17T03:23:18;13.70;;;7.37;;
71679;SDS011;59512;42.662;23.254;2022-09-17T03:25:44;12.33;;;8.07;;
71679;SDS011;59512;42.662;23.254;2022-09-17T03:28:09;12.85;;;7.32;;
71679;SDS011;59512;42.662;23.254;2022-09-17T03:30:35;11.57;;;6.23;;
71679;SDS011;59512;42.662;23.254;2022-09-17T03:33:00;13.03;;;4.83;;
71679;SDS011;59512;42.662;23.254;2022-09-17T03:35:25;8.63;;;3.30;;
71679;SDS011;59512;42.662;23.254;2022-09-17T03:37:50;8.97;;;3.57;;
71679;SDS011;59512;42.662;23.254;2022-09-17T03:40:16;10.23;;;4.70;;
71679;SDS011;59512;42.662;23.254;2022-09-17T03:42:41;11.17;;;5.50;;
71679;SDS011;59512;42.662;23.254;2022-09-17T03:45:06;10.27;;;5.77;;
71679;SDS011;59512;42.662;23.254;2022-09-17T03:47:32;13.73;;;5.27;;
71679;SDS011;59512;42.662;23.254;2022-09-17T03:49:57;9.63;;;5.30;;
71679;SDS011;59512;42.662;23.254;2022-09-17T03:52:22;10.23;;;5.10;;
71679;SDS011;59512;42.662;23.254;2022-09-17T03:54:48;12.90;;;4.83;;
71679;SDS011;59512;42.662;23.254;2022-09-17T03:57:13;9.85;;;5.05;;
71679;SDS011;59512;42.662;23.254;2022-09-17T03:59:38;12.02;;;4.68;;
71679;SDS011;59512;42.662;23.254;2022-09-17T04:02:03;9.77;;;5.03;;
71679;SDS011;59512;42.662;23.254;2022-09-17T04:04:29;12.70;;;5.07;;
71679;SDS011;59512;42.662;23.254;2022-09-17T04:06:54;9.60;;;4.90;;
71679;SDS011;59512;42.662;23.254;2022-09-17T04:09:19;9.17;;;4.63;;
71679;SDS011;59512;42.662;23.254;2022-09-17T04:11:44;9.83;;;5.30;;
71679;SDS011;59512;42.662;23.254;2022-09-17T04:14:10;10.90;;;5.47;;
71679;SDS011;59512;42.662;23.254;2022-09-17T04:16:35;10.60;;;5.70;;
71679;SDS011;59512;42.662;23.254;2022-09-17T04:19:00;13.30;;;5.30;;
71679;SDS011;59512;42.662;23.254;2022-09-17T04:21:26;10.77;;;5.07;;
71679;SDS011;59512;42.662;23.254;2022-09-17T04:23:51;11.10;;;5.70;;
71679;SDS011;59512;42.662;23.254;2022-09-17T04:26:16;13.80;;;6.40;;
71679;SDS011;59512;42.662;23.254;2022-09-17T04:28:41;14.67;;;6.30;;
71679;SDS011;59512;42.662;23.254;2022-09-17T04:31:07;12.17;;;6.20;;
71679;SDS011;59512;42.662;23.254;2022-09-17T04:33:32;10.60;;;5.97;;
71679;SDS011;59512;42.662;23.254;2022-09-17T04:35:57;11.30;;;5.93;;
71679;SDS011;59512;42.662;23.254;2022-09-17T04:38:23;11.30;;;5.80;;
71679;SDS011;59512;42.662;23.254;2022-09-17T04:40:48;12.57;;;6.47;;
71679;SDS011;59512;42.662;23.254;2022-09-17T04:43:14;18.03;;;7.00;;
71679;SDS011;59512;42.662;23.254;2022-09-17T04:45:39;9.47;;;3.87;;
71679;SDS011;59512;42.662;23.254;2022-09-17T04:48:04;9.17;;;2.67;;
71679;SDS011;59512;42.662;23.254;2022-09-17T04:50:30;7.03;;;2.90;;
71679;SDS011;59512;42.662;23.254;2022-09-17T04:52:55;9.60;;;2.78;;
71679;SDS011;59512;42.662;23.254;2022-09-17T04:55:20;10.57;;;2.70;;
71679;SDS011;59512;42.662;23.254;2022-09-17T04:57:46;7.03;;;2.63;;
71679;SDS011;59512;42.662;23.254;2022-09-17T05:00:12;8.30;;;2.47;;
71679;SDS011;59512;42.662;23.254;2022-09-17T05:02:38;8.32;;;2.40;;
71679;SDS011;59512;42.662;23.254;2022-09-17T05:05:03;8.60;;;3.10;;
71679;SDS011;59512;42.662;23.254;2022-09-17T05:07:28;9.40;;;2.33;;
71679;SDS011;59512;42.662;23.254;2022-09-17T05:09:53;10.77;;;2.80;;
71679;SDS011;59512;42.662;23.254;2022-09-17T05:12:19;12.47;;;3.53;;
71679;SDS011;59512;42.662;23.254;2022-09-17T05:14:44;10.93;;;3.87;;
71679;SDS011;59512;42.662;23.254;2022-09-17T05:17:09;11.10;;;3.43;;
71679;SDS011;59512;42.662;23.254;2022-09-17T05:19:35;9.70;;;3.10;;
71679;SDS011;59512;42.662;23.254;2022-09-17T05:22:00;11.23;;;2.63;;
71679;SDS011;59512;42.662;23.254;2022-09-17T05:24:25;6.40;;;1.93;;
71679;SDS011;59512;42.662;23.254;2022-09-17T05:26:51;10.50;;;2.60;;
71679;SDS011;59512;42.662;23.254;2022-09-17T05:29:16;8.40;;;2.40;;
71679;SDS011;59512;42.662;23.254;2022-09-17T05:31:42;11.00;;;2.47;;
71679;SDS011;59512;42.662;23.254;2022-09-17T05:34:07;10.10;;;2.92;;
71679;SDS011;59512;42.662;23.254;2022-09-17T05:36:32;10.48;;;3.15;;
71679;SDS011;59512;42.662;23.254;2022-09-17T05:38:58;9.17;;;2.33;;
71679;SDS011;59512;42.662;23.254;2022-09-17T05:41:23;10.10;;;3.20;;
71679;SDS011;59512;42.662;23.254;2022-09-17T05:43:49;10.70;;;3.07;;
71679;SDS011;59512;42.662;23.254;2022-09-17T05:46:15;7.05;;;2.13;;
71679;SDS011;59512;42.662;23.254;2022-09-17T05:48:40;7.13;;;1.93;;
71679;SDS011;59512;42.662;23.254;2022-09-17T05:51:05;7.90;;;1.50;;
71679;SDS011;59512;42.662;23.254;2022-09-17T05:53:31;8.75;;;1.48;;
71679;SDS011;59512;42.662;23.254;2022-09-17T05:55:57;8.13;;;1.95;;
71679;SDS011;59512;42.662;23.254;2022-09-17T05:58:22;9.57;;;1.53;;
71679;SDS011;59512;42.662;23.254;2022-09-17T06:00:48;5.95;;;1.40;;
71679;SDS011;59512;42.662;23.254;2022-09-17T06:03:13;5.83;;;1.30;;
71679;SDS011;59512;42.662;23.254;2022-09-17T06:05:39;6.70;;;1.25;;
71679;SDS011;59512;42.662;23.254;2022-09-17T06:08:05;7.33;;;1.30;;
71679;SDS011;59512;42.662;23.254;2022-09-17T06:10:30;4.27;;;1.27;;
71679;SDS011;59512;42.662;23.254;2022-09-17T06:12:56;8.30;;;1.20;;
71679;SDS011;59512;42.662;23.254;2022-09-17T06:15:21;4.32;;;1.23;;
71679;SDS011;59512;42.662;23.254;2022-09-17T06:17:47;7.37;;;2.00;;
71679;SDS011;59512;42.662;23.254;2022-09-17T06:20:12;7.97;;;1.70;;
71679;SDS011;59512;42.662;23.254;2022-09-17T06:22:37;7.43;;;1.60;;
71679;SDS011;59512;42.662;23.254;2022-09-17T06:25:03;7.45;;;2.05;;
71679;SDS011;59512;42.662;23.254;2022-09-17T06:27:29;7.30;;;2.40;;
71679;SDS011;59512;42.662;23.254;2022-09-17T06:29:55;6.03;;;2.00;;
71679;SDS011;59512;42.662;23.254;2022-09-17T06:32:20;7.90;;;2.30;;
71679;SDS011;59512;42.662;23.254;2022-09-17T06:34:45;7.13;;;2.40;;
71679;SDS011;59512;42.662;23.254;2022-09-17T06:37:10;7.33;;;2.27;;
71679;SDS011;59512;42.662;23.254;2022-09-17T06:39:36;9.50;;;2.73;;
71679;SDS011;59512;42.662;23.254;2022-09-17T06:42:01;12.50;;;2.60;;
71679;SDS011;59512;42.662;23.254;2022-09-17T06:44:27;8.48;;;2.20;;
71679;SDS011;59512;42.662;23.254;2022-09-17T06:46:52;8.57;;;2.40;;
71679;SDS011;59512;42.662;23.254;2022-09-17T06:49:17;7.20;;;2.80;;
71679;SDS011;59512;42.662;23.254;2022-09-17T06:51:43;8.80;;;2.97;;
71679;SDS011;59512;42.662;23.254;2022-09-17T06:54:08;9.10;;;3.00;;
71679;SDS011;59512;42.662;23.254;2022-09-17T06:56:34;11.00;;;4.30;;
71679;SDS011;59512;42.662;23.254;2022-09-17T06:58:59;7.83;;;3.27;;
71679;SDS011;59512;42.662;23.254;2022-09-17T07:01:25;10.13;;;2.90;;
71679;SDS011;59512;42.662;23.254;2022-09-17T07:03:50;7.80;;;2.87;;
71679;SDS011;59512;42.662;23.254;2022-09-17T07:06:15;9.27;;;2.27;;
71679;SDS011;59512;42.662;23.254;2022-09-17T07:08:41;7.37;;;2.70;;
71679;SDS011;59512;42.662;23.254;2022-09-17T07:11:06;8.82;;;2.58;;
71679;SDS011;59512;42.662;23.254;2022-09-17T07:13:32;12.57;;;3.63;;
71679;SDS011;59512;42.662;23.254;2022-09-17T07:15:59;6.22;;;2.40;;
71679;SDS011;59512;42.662;23.254;2022-09-17T07:18:24;21.50;;;4.97;;
71679;SDS011;59512;42.662;23.254;2022-09-17T07:20:59;17.30;;;4.25;;
71679;SDS011;59512;42.662;23.254;2022-09-17T07:23:26;17.33;;;4.83;;
71679;SDS011;59512;42.662;23.254;2022-09-17T07:25:56;19.13;;;4.07;;
71679;SDS011;59512;42.662;23.254;2022-09-17T07:28:22;11.70;;;2.92;;
71679;SDS011;59512;42.662;23.254;2022-09-17T07:30:48;15.85;;;4.32;;
71679;SDS011;59512;42.662;23.254;2022-09-17T07:33:14;19.93;;;4.47;;
71679;SDS011;59512;42.662;23.254;2022-09-17T07:35:40;15.52;;;4.07;;
71679;SDS011;59512;42.662;23.254;2022-09-17T07:38:05;17.70;;;3.87;;
71679;SDS011;59512;42.662;23.254;2022-09-17T07:40:30;10.70;;;3.10;;
71679;SDS011;59512;42.662;23.254;2022-09-17T07:42:56;13.83;;;3.50;;
71679;SDS011;59512;42.662;23.254;2022-09-17T07:45:22;7.85;;;2.85;;
71679;SDS011;59512;42.662;23.254;2022-09-17T07:47:47;13.07;;;3.50;;
71679;SDS011;59512;42.662;23.254;2022-09-17T07:50:13;10.63;;;3.67;;
71679;SDS011;59512;42.662;23.254;2022-09-17T07:52:44;10.97;;;4.13;;
71679;SDS011;59512;42.662;23.254;2022-09-17T07:55:09;9.67;;;3.53;;
71679;SDS011;59512;42.662;23.254;2022-09-17T07:57:34;8.95;;;3.92;;
71679;SDS011;59512;42.662;23.254;2022-09-17T07:59:59;11.40;;;4.10;;
71679;SDS011;59512;42.662;23.254;2022-09-17T08:02:25;9.80;;;3.95;;
71679;SDS011;59512;42.662;23.254;2022-09-17T08:04:50;10.73;;;4.13;;
71679;SDS011;59512;42.662;23.254;2022-09-17T08:07:16;11.67;;;3.90;;
71679;SDS011;59512;42.662;23.254;2022-09-17T08:09:41;10.63;;;3.80;;
71679;SDS011;59512;42.662;23.254;2022-09-17T08:12:06;11.73;;;3.60;;
71679;SDS011;59512;42.662;23.254;2022-09-17T08:14:32;9.70;;;3.95;;
71679;SDS011;59512;42.662;23.254;2022-09-17T08:16:57;14.55;;;4.82;;
71679;SDS011;59512;42.662;23.254;2022-09-17T08:19:22;10.50;;;3.83;;
71679;SDS011;59512;42.662;23.254;2022-09-17T08:21:48;8.97;;;3.83;;
71679;SDS011;59512;42.662;23.254;2022-09-17T08:24:13;10.53;;;4.33;;
71679;SDS011;59512;42.662;23.254;2022-09-17T08:26:39;11.77;;;4.30;;
71679;SDS011;59512;42.662;23.254;2022-09-17T08:29:05;40.30;;;5.72;;
71679;SDS011;59512;42.662;23.254;2022-09-17T08:31:31;12.70;;;5.03;;
71679;SDS011;59512;42.662;23.254;2022-09-17T08:33:57;12.80;;;4.93;;
71679;SDS011;59512;42.662;23.254;2022-09-17T08:36:24;14.80;;;5.55;;
71679;SDS011;59512;42.662;23.254;2022-09-17T08:38:53;13.00;;;5.93;;
71679;SDS011;59512;42.662;23.254;2022-09-17T08:41:23;14.52;;;6.65;;
71679;SDS011;59512;42.662;23.254;2022-09-17T08:46:32;12.35;;;6.03;;
71679;SDS011;59512;42.662;23.254;2022-09-17T08:56:31;37.40;;;16.60;;
71679;SDS011;59512;42.662;23.254;2022-09-17T09:06:50;12.45;;;4.72;;
71679;SDS011;59512;42.662;23.254;2022-09-17T09:09:17;10.47;;;4.43;;
71679;SDS011;59512;42.662;23.254;2022-09-17T09:11:45;14.10;;;4.93;;
71679;SDS011;59512;42.662;23.254;2022-09-17T09:14:15;16.13;;;4.25;;
71679;SDS011;59512;42.662;23.254;2022-09-17T09:16:44;9.13;;;3.80;;
71679;SDS011;59512;42.662;23.254;2022-09-17T09:19:13;12.55;;;4.70;;
71679;SDS011;59512;42.662;23.254;2022-09-17T09:24:30;9.23;;;4.18;;
71679;SDS011;59512;42.662;23.254;2022-09-17T09:27:10;12.27;;;4.78;;
71679;SDS011;59512;42.662;23.254;2022-09-17T09:34:34;13.30;;;4.43;;
71679;SDS011;59512;42.662;23.254;2022-09-17T09:37:45;12.45;;;5.38;;
71679;SDS011;59512;42.662;23.254;2022-09-17T09:39:45;12.77;;;5.57;;
71679;SDS011;59512;42.662;23.254;2022-09-17T10:00:27;15.40;;;7.28;;
71679;SDS011;59512;42.662;23.254;2022-09-17T10:02:59;16.33;;;7.88;;
71679;SDS011;59512;42.662;23.254;2022-09-17T10:05:28;15.07;;;8.83;;
71679;SDS011;59512;42.662;23.254;2022-09-17T10:07:54;22.95;;;10.25;;
71679;SDS011;59512;42.662;23.254;2022-09-17T10:10:19;17.30;;;8.50;;
71679;SDS011;59512;42.662;23.254;2022-09-17T10:12:45;13.60;;;7.43;;
71679;SDS011;59512;42.662;23.254;2022-09-17T10:15:32;16.27;;;8.60;;
71679;SDS011;59512;42.662;23.254;2022-09-17T10:21:03;15.00;;;7.13;;
71679;SDS011;59512;42.662;23.254;2022-09-17T10:23:29;18.25;;;7.90;;
71679;SDS011;59512;42.662;23.254;2022-09-17T10:25:57;12.65;;;6.72;;
71679;SDS011;59512;42.662;23.254;2022-09-17T10:31:27;13.35;;;6.57;;
71679;SDS011;59512;42.662;23.254;2022-09-17T10:34:19;15.60;;;8.02;;
71679;SDS011;59512;42.662;23.254;2022-09-17T10:36:49;14.00;;;6.47;;
71679;SDS011;59512;42.662;23.254;2022-09-17T10:39:36;11.77;;;5.95;;
71679;SDS011;59512;42.662;23.254;2022-09-17T10:42:14;10.00;;;3.97;;
71679;SDS011;59512;42.662;23.254;2022-09-17T10:44:51;9.23;;;2.28;;
71679;SDS011;59512;42.662;23.254;2022-09-17T10:50:01;6.13;;;1.08;;
71679;SDS011;59512;42.662;23.254;2022-09-17T10:52:30;3.22;;;1.00;;
71679;SDS011;59512;42.662;23.254;2022-09-17T10:58:01;2.97;;;0.95;;
71679;SDS011;59512;42.662;23.254;2022-09-17T11:00:32;5.97;;;1.70;;
71679;SDS011;59512;42.662;23.254;2022-09-17T11:08:18;11.63;;;5.40;;
71679;SDS011;59512;42.662;23.254;2022-09-17T11:11:05;8.02;;;4.07;;
71679;SDS011;59512;42.662;23.254;2022-09-17T11:18:55;6.10;;;2.35;;
71679;SDS011;59512;42.662;23.254;2022-09-17T11:21:27;8.95;;;4.18;;
71679;SDS011;59512;42.662;23.254;2022-09-17T11:38:17;3.15;;;1.00;;
71679;SDS011;59512;42.662;23.254;2022-09-17T11:40:59;3.83;;;1.20;;
71679;SDS011;59512;42.662;23.254;2022-09-17T11:43:36;4.50;;;1.00;;
71679;SDS011;59512;42.662;23.254;2022-09-17T11:49:01;4.82;;;1.48;;
71679;SDS011;59512;42.662;23.254;2022-09-17T11:51:33;6.20;;;2.25;;
71679;SDS011;59512;42.662;23.254;2022-09-17T11:54:21;8.23;;;3.13;;
71679;SDS011;59512;42.662;23.254;2022-09-17T11:56:51;6.03;;;2.80;;
71679;SDS011;59512;42.662;23.254;2022-09-17T11:59:26;10.27;;;3.50;;
71679;SDS011;59512;42.662;23.254;2022-09-17T12:01:55;7.60;;;2.58;;
71679;SDS011;59512;42.662;23.254;2022-09-17T12:07:43;4.60;;;1.80;;
71679;SDS011;59512;42.662;23.254;2022-09-17T12:15:44;2.53;;;0.60;;
71679;SDS011;59512;42.662;23.254;2022-09-17T12:20:46;1.87;;;0.60;;
71679;SDS011;59512;42.662;23.254;2022-09-17T12:23:16;2.83;;;0.70;;
71679;SDS011;59512;42.662;23.254;2022-09-17T12:34:44;2.67;;;0.60;;
71679;SDS011;59512;42.662;23.254;2022-09-17T12:37:36;3.72;;;0.70;;
71679;SDS011;59512;42.662;23.254;2022-09-17T12:48:29;4.03;;;0.70;;
71679;SDS011;59512;42.662;23.254;2022-09-17T12:51:15;2.20;;;0.82;;
71679;SDS011;59512;42.662;23.254;2022-09-17T12:59:51;3.13;;;0.77;;
71679;SDS011;59512;42.662;23.254;2022-09-17T13:24:13;1.52;;;0.40;;
71679;SDS011;59512;42.662;23.254;2022-09-17T13:26:40;2.55;;;0.70;;
71679;SDS011;59512;42.662;23.254;2022-09-17T13:29:05;3.97;;;0.68;;
71679;SDS011;59512;42.662;23.254;2022-09-17T13:34:00;2.60;;;0.60;;
71679;SDS011;59512;42.662;23.254;2022-09-17T13:36:36;3.80;;;0.70;;
71679;SDS011;59512;42.662;23.254;2022-09-17T13:39:04;4.50;;;0.68;;
71679;SDS011;59512;42.662;23.254;2022-09-17T13:41:32;2.92;;;0.70;;
71679;SDS011;59512;42.662;23.254;2022-09-17T13:44:01;2.92;;;0.75;;
71679;SDS011;59512;42.662;23.254;2022-09-17T13:46:31;3.67;;;0.70;;
71679;SDS011;59512;42.662;23.254;2022-09-17T13:48:58;3.25;;;0.80;;
71679;SDS011;59512;42.662;23.254;2022-09-17T13:53:54;1.58;;;0.50;;
71679;SDS011;59512;42.662;23.254;2022-09-17T13:56:35;4.85;;;0.80;;
71679;SDS011;59512;42.662;23.254;2022-09-17T13:59:10;3.03;;;0.77;;
71679;SDS011;59512;42.662;23.254;2022-09-17T14:09:50;3.03;;;0.80;;
71679;SDS011;59512;42.662;23.254;2022-09-17T14:17:59;3.95;;;0.90;;
71679;SDS011;59512;42.662;23.254;2022-09-17T14:20:24;2.53;;;0.88;;
71679;SDS011;59512;42.662;23.254;2022-09-17T14:22:56;4.83;;;1.33;;
71679;SDS011;59512;42.662;23.254;2022-09-17T14:25:43;4.05;;;1.30;;
71679;SDS011;59512;42.662;23.254;2022-09-17T14:28:13;5.80;;;1.80;;
71679;SDS011;59512;42.662;23.254;2022-09-17T14:30:46;5.60;;;2.00;;
71679;SDS011;59512;42.662;23.254;2022-09-17T14:46:19;6.70;;;2.55;;
71679;SDS011;59512;42.662;23.254;2022-09-17T14:48:45;7.57;;;3.17;;
71679;SDS011;59512;42.662;23.254;2022-09-17T14:53:43;6.03;;;2.33;;
71679;SDS011;59512;42.662;23.254;2022-09-17T14:56:10;9.30;;;3.40;;
71679;SDS011;59512;42.662;23.254;2022-09-17T14:58:50;8.07;;;3.63;;
71679;SDS011;59512;42.662;23.254;2022-09-17T15:01:23;8.30;;;4.35;;
71679;SDS011;59512;42.662;23.254;2022-09-17T15:06:40;9.23;;;4.93;;
71679;SDS011;59512;42.662;23.254;2022-09-17T15:09:14;10.45;;;5.20;;
71679;SDS011;59512;42.662;23.254;2022-09-17T15:11:41;14.88;;;7.07;;
71679;SDS011;59512;42.662;23.254;2022-09-17T15:14:09;10.50;;;6.03;;
71679;SDS011;59512;42.662;23.254;2022-09-17T15:16:45;13.35;;;6.57;;
71679;SDS011;59512;42.662;23.254;2022-09-17T15:19:17;12.63;;;6.27;;
71679;SDS011;59512;42.662;23.254;2022-09-17T15:22:37;10.80;;;4.95;;
71679;SDS011;59512;42.662;23.254;2022-09-17T15:29:58;10.98;;;6.13;;
71679;SDS011;59512;42.662;23.254;2022-09-17T15:32:34;8.90;;;4.50;;
71679;SDS011;59512;42.662;23.254;2022-09-17T15:37:54;16.17;;;8.67;;
71679;SDS011;59512;42.662;23.254;2022-09-17T15:45:47;25.48;;;10.05;;
71679;SDS011;59512;42.662;23.254;2022-09-17T15:50:58;28.55;;;11.63;;
71679;SDS011;59512;42.662;23.254;2022-09-17T15:53:26;12.35;;;4.78;;
71679;SDS011;59512;42.662;23.254;2022-09-17T16:04:07;7.68;;;3.28;;
71679;SDS011;59512;42.662;23.254;2022-09-17T16:09:36;8.03;;;2.60;;
71679;SDS011;59512;42.662;23.254;2022-09-17T16:12:03;6.55;;;2.42;;
71679;SDS011;59512;42.662;23.254;2022-09-17T16:14:28;7.00;;;2.80;;
71679;SDS011;59512;42.662;23.254;2022-09-17T16:16:54;7.27;;;3.60;;
71679;SDS011;59512;42.662;23.254;2022-09-17T16:19:20;7.13;;;3.13;;
71679;SDS011;59512;42.662;23.254;2022-09-17T16:21:46;8.57;;;3.43;;
71679;SDS011;59512;42.662;23.254;2022-09-17T16:24:12;9.60;;;3.10;;
71679;SDS011;59512;42.662;23.254;2022-09-17T16:26:37;8.73;;;3.03;;
71679;SDS011;59512;42.662;23.254;2022-09-17T16:29:20;9.30;;;3.43;;
71679;SDS011;59512;42.662;23.254;2022-09-17T16:31:46;9.25;;;4.00;;
71679;SDS011;59512;42.662;23.254;2022-09-17T16:34:12;9.77;;;4.05;;
71679;SDS011;59512;42.662;23.254;2022-09-17T16:36:38;12.63;;;4.30;;
71679;SDS011;59512;42.662;23.254;2022-09-17T16:39:03;9.23;;;3.77;;
71679;SDS011;59512;42.662;23.254;2022-09-17T16:41:29;12.50;;;5.03;;
71679;SDS011;59512;42.662;23.254;2022-09-17T16:43:54;12.03;;;5.73;;
71679;SDS011;59512;42.662;23.254;2022-09-17T16:46:21;12.85;;;5.85;;
71679;SDS011;59512;42.662;23.254;2022-09-17T16:48:49;9.67;;;3.17;;
71679;SDS011;59512;42.662;23.254;2022-09-17T16:51:15;8.70;;;3.33;;
71679;SDS011;59512;42.662;23.254;2022-09-17T16:53:40;6.83;;;2.67;;
71679;SDS011;59512;42.662;23.254;2022-09-17T16:56:06;12.33;;;7.13;;
71679;SDS011;59512;42.662;23.254;2022-09-17T16:58:32;11.10;;;4.80;;
71679;SDS011;59512;42.662;23.254;2022-09-17T17:00:58;8.73;;;4.07;;
71679;SDS011;59512;42.662;23.254;2022-09-17T17:03:29;9.18;;;3.40;;
71679;SDS011;59512;42.662;23.254;2022-09-17T17:05:55;6.00;;;2.10;;
71679;SDS011;59512;42.662;23.254;2022-09-17T17:08:20;6.80;;;3.23;;
71679;SDS011;59512;42.662;23.254;2022-09-17T17:10:48;7.40;;;3.35;;
71679;SDS011;59512;42.662;23.254;2022-09-17T17:13:13;9.82;;;3.38;;
71679;SDS011;59512;42.662;23.254;2022-09-17T17:15:39;7.93;;;3.63;;
71679;SDS011;59512;42.662;23.254;2022-09-17T17:18:05;9.73;;;4.70;;
71679;SDS011;59512;42.662;23.254;2022-09-17T17:20:30;7.13;;;2.57;;
71679;SDS011;59512;42.662;23.254;2022-09-17T17:22:59;6.55;;;2.65;;
71679;SDS011;59512;42.662;23.254;2022-09-17T17:25:24;8.10;;;3.07;;
71679;SDS011;59512;42.662;23.254;2022-09-17T17:27:51;7.93;;;2.80;;
71679;SDS011;59512;42.662;23.254;2022-09-17T17:30:16;11.60;;;3.70;;
71679;SDS011;59512;42.662;23.254;2022-09-17T17:32:42;7.55;;;3.45;;
71679;SDS011;59512;42.662;23.254;2022-09-17T17:35:08;9.37;;;4.17;;
71679;SDS011;59512;42.662;23.254;2022-09-17T17:37:34;10.18;;;4.00;;
71679;SDS011;59512;42.662;23.254;2022-09-17T17:40:00;8.03;;;3.80;;
71679;SDS011;59512;42.662;23.254;2022-09-17T17:42:29;9.15;;;3.53;;
71679;SDS011;59512;42.662;23.254;2022-09-17T17:45:01;10.35;;;3.78;;
71679;SDS011;59512;42.662;23.254;2022-09-17T17:47:26;8.73;;;3.70;;
71679;SDS011;59512;42.662;23.254;2022-09-17T17:49:52;10.43;;;4.40;;
71679;SDS011;59512;42.662;23.254;2022-09-17T17:52:17;9.90;;;4.90;;
71679;SDS011;59512;42.662;23.254;2022-09-17T17:54:42;7.13;;;2.78;;
71679;SDS011;59512;42.662;23.254;2022-09-17T17:57:08;10.73;;;4.57;;
71679;SDS011;59512;42.662;23.254;2022-09-17T17:59:35;11.95;;;4.45;;
71679;SDS011;59512;42.662;23.254;2022-09-17T18:02:00;8.70;;;4.33;;
71679;SDS011;59512;42.662;23.254;2022-09-17T18:04:26;8.50;;;4.10;;
71679;SDS011;59512;42.662;23.254;2022-09-17T18:06:51;10.20;;;4.80;;
71679;SDS011;59512;42.662;23.254;2022-09-17T18:09:17;10.70;;;4.90;;
71679;SDS011;59512;42.662;23.254;2022-09-17T18:11:42;10.68;;;4.63;;
71679;SDS011;59512;42.662;23.254;2022-09-17T18:14:08;9.30;;;4.17;;
71679;SDS011;59512;42.662;23.254;2022-09-17T18:16:36;7.97;;;3.70;;
71679;SDS011;59512;42.662;23.254;2022-09-17T18:19:02;8.93;;;4.57;;
71679;SDS011;59512;42.662;23.254;2022-09-17T18:21:27;11.95;;;6.05;;
71679;SDS011;59512;42.662;23.254;2022-09-17T18:23:53;10.00;;;4.20;;
71679;SDS011;59512;42.662;23.254;2022-09-17T18:26:20;10.90;;;4.10;;
71679;SDS011;59512;42.662;23.254;2022-09-17T18:28:50;9.25;;;3.45;;
71679;SDS011;59512;42.662;23.254;2022-09-17T18:33:55;8.25;;;3.33;;
71679;SDS011;59512;42.662;23.254;2022-09-17T18:36:23;6.20;;;2.27;;
71679;SDS011;59512;42.662;23.254;2022-09-17T18:38:56;9.18;;;3.28;;
71679;SDS011;59512;42.662;23.254;2022-09-17T18:41:26;7.75;;;3.67;;
71679;SDS011;59512;42.662;23.254;2022-09-17T18:43:52;9.32;;;3.90;;
71679;SDS011;59512;42.662;23.254;2022-09-17T18:46:17;8.57;;;3.60;;
71679;SDS011;59512;42.662;23.254;2022-09-17T18:48:42;7.80;;;3.17;;
71679;SDS011;59512;42.662;23.254;2022-09-17T18:51:10;8.85;;;3.55;;
71679;SDS011;59512;42.662;23.254;2022-09-17T18:53:37;5.85;;;2.60;;